Adams Landing, Vermont
Current Conditions -  °F | °C
As of 4:53 PM on Sunday 23 Nov 2014 (Local Time) from KPBG Reporting Station
Broken Clouds Broken Clouds  
Wind Chill: 44°   Ceiling: 3600
Heat Index: 44°   Visibility: 10mi
Dew Point: 40°   Wind: 0mph
Humidity: 85%   Direction: NA
Pressure: 30.03"   Gusts: NA
Location:  44.717°N, 73.3067°W
Report Text: KPBG 232153Z AUTO 00000KT 10SM BKN036 07/04 A3003 RMK AO2 SLP171 T00670044
Loading
Personal Weather Stations






























Interactive Weather Map New forecast layout! Learn more

10-Day Weather Forecast

Advertisements
Track Severe Weather on mobile